Carriage Hill, Washington
Current Conditions -  °F | °C
As of 12:15 PM on Thursday 30 Oct 2014 (Local Time) from KCLS Reporting Station
Broken Clouds Broken Clouds  
Wind Chill: 15°   Ceiling: 4800
Heat Index: 15°   Visibility: 10mi
Dew Point: 14°   Wind: 6mph
Humidity: 94%   Direction: 170°S
Pressure: 29.81"   Gusts: NA
Location:  46.5485°N, 122.112°W
Report Text: KCLS 301915Z AUTO 17005KT 10SM FEW032 BKN048 15/14 A2981 RMK AO2
Loading
Personal Weather Stations






























Interactive Weather Map
Tropical Storm Tracking
New forecast layout! Learn more

10-Day Weather Forecast

Advertisements
Track Severe Weather on mobile